Terminal Aerodrome Forecast
Issued by NWS

Home | Current Version | Previous Version | Text Only | Print | Product List | Glossary On
Versions: 1 2 3 4 5 6 7 8 9 10 11 12 13 14
708
FTUS45 KABQ 261108 AAA
TAFFMN
TAF AMD
KFMN 261108Z 2611/2706 31008KT 2SM BR SCT025 BKN040
      TEMPO 2611/2614 1/2SM FG BKN025
     FM261700 28013G22KT P6SM SCT060
     FM270200 VRB05KT P6SM SKC=

USA.gov is the U.S. government's official web portal to all federal, state and local government web resources and services.